Time;durP1;ratioP1;P1;durP2;ratioP2;P2;SDS_P1;SDS_P2;PMS_P1;PMS_P2;Temp;Humidity;BMP_temperature;BMP_pressure;BME280_temperature;BME280_humidity;BME280_pressure;Samples;Min_cycle;Max_cycle;Signal;HPM_P1;HPM_P2
2023/01/29 00:00:43;;;;;;;15.72;7.78;;;;;;;-1.99;77.85;100663.36;1754120;81;21122;-75
2023/01/29 00:03:12;;;;;;;17.98;7.72;;;;;;;-1.99;77.94;100664.22;1754159;82;21158;-71
2023/01/29 00:05:41;;;;;;;14.65;7.65;;;;;;;-1.99;78.00;100662.02;1753939;82;21598;-73
2023/01/29 00:08:10;;;;;;;17.37;7.63;;;;;;;-2.01;78.05;100670.66;1754227;82;21162;-73
2023/01/29 00:10:38;;;;;;;20.00;8.40;;;;;;;-2.02;78.15;100667.13;1753745;81;21146;-71
2023/01/29 00:13:08;;;;;;;15.88;7.30;;;;;;;-2.02;78.21;100667.61;1754270;82;21786;-72
2023/01/29 00:15:37;;;;;;;15.88;7.37;;;;;;;-2.03;78.29;100667.23;1753790;82;21123;-70
2023/01/29 00:18:07;;;;;;;17.07;7.22;;;;;;;-2.06;78.38;100671.48;1754079;81;21603;-72
2023/01/29 00:20:36;;;;;;;17.80;7.60;;;;;;;-2.08;78.44;100670.73;1753887;82;21546;-70
2023/01/29 00:23:05;;;;;;;16.25;7.62;;;;;;;-2.09;78.49;100667.19;1753985;82;21134;-72
2023/01/29 00:25:35;;;;;;;15.23;7.65;;;;;;;-2.13;78.53;100664.35;1742008;82;21587;-71
2023/01/29 00:28:05;;;;;;;16.37;7.83;;;;;;;-2.14;78.69;100665.80;1806926;79;21162;-71
2023/01/29 00:30:36;;;;;;;18.50;7.97;;;;;;;-2.12;78.78;100670.58;1738243;82;21139;-72
2023/01/29 00:33:05;;;;;;;19.70;8.53;;;;;;;-2.11;78.73;100672.30;1806761;79;21115;-74
2023/01/29 00:35:34;;;;;;;17.87;7.40;;;;;;;-2.13;78.74;100672.41;1737714;82;21590;-72
2023/01/29 00:38:04;;;;;;;16.00;8.10;;;;;;;-2.14;78.77;100668.48;1806101;79;21099;-73
2023/01/29 00:46:14;;;;;;;17.90;8.20;;;;;;;-2.15;79.13;100682.39;1737621;82;21174;-72
2023/01/29 00:48:44;;;;;;;21.30;8.95;;;;;;;-2.16;79.10;100677.13;1806201;79;21526;-71
2023/01/29 00:51:14;;;;;;;17.55;8.00;;;;;;;-2.17;79.22;100676.76;1737787;82;21206;-72
2023/01/29 00:53:44;;;;;;;18.67;7.97;;;;;;;-2.16;79.27;100675.80;1806054;79;21166;-72
2023/01/29 00:56:13;;;;;;;16.90;7.33;;;;;;;-2.17;79.33;100675.42;1737450;82;21151;-71
2023/01/29 00:58:41;;;;;;;15.32;7.25;;;;;;;-2.16;79.39;100669.08;1806485;79;21162;-72
2023/01/29 01:01:10;;;;;;;17.07;7.67;;;;;;;-2.15;79.42;100674.34;1737634;82;21523;-72
2023/01/29 01:03:41;;;;;;;22.20;8.30;;;;;;;-2.13;79.43;100668.86;1805670;79;21190;-71
2023/01/29 01:06:11;;;;;;;16.30;7.53;;;;;;;-2.13;79.46;100674.23;1737581;82;21621;-71
2023/01/29 04:30:54;;;;;;;20.55;10.75;;;;;;;-2.50;85.28;100680.02;1830012;77;22660;-71
2023/01/29 04:33:57;;;;;;;26.00;11.08;;;;;;;-2.49;85.27;100683.06;1788697;79;21103;-73
2023/01/29 04:36:53;;;;;;;22.75;10.08;;;;;;;-2.45;85.27;100680.55;1788555;80;21115;-71
2023/01/29 04:39:40;;;;;;;22.42;10.30;;;;;;;-2.40;85.32;100683.28;1788670;80;21392;-71
2023/01/29 04:42:30;;;;;;;21.73;10.10;;;;;;;-2.35;85.30;100683.81;1788142;79;21589;-70
2023/01/29 04:45:33;;;;;;;24.82;10.65;;;;;;;-2.31;85.26;100689.34;1788460;80;21107;-73
2023/01/29 04:48:36;;;;;;;27.37;10.05;;;;;;;-2.27;85.23;100683.27;1788552;80;21099;-70
2023/01/29 04:51:14;;;;;;;20.00;9.55;;;;;;;-2.27;85.10;100680.59;1788554;80;21099;-73
2023/01/29 04:54:09;;;;;;;24.52;9.90;;;;;;;-2.25;85.10;100688.05;1788801;79;21111;-71
2023/01/29 04:57:05;;;;;;;28.42;10.80;;;;;;;-2.25;84.92;100690.25;1768589;80;21146;-71
2023/01/29 04:59:40;;;;;;;24.23;9.30;;;;;;;-2.24;84.89;100687.94;1788694;80;21092;-71
2023/01/29 05:02:09;;;;;;;23.60;10.05;;;;;;;-2.28;84.84;100686.44;1788742;79;21327;-74
2023/01/29 05:04:40;;;;;;;23.57;10.58;;;;;;;-2.27;84.85;100689.50;1788577;80;21622;-75
2023/01/29 05:07:11;;;;;;;24.05;10.65;;;;;;;-2.24;84.90;100692.44;1788833;80;21605;-71
2023/01/29 05:09:43;;;;;;;24.45;10.03;;;;;;;-2.20;84.88;100681.00;1788559;79;21125;-72
2023/01/29 05:12:12;;;;;;;24.77;9.73;;;;;;;-2.18;84.75;100695.17;1788811;80;21087;-72
2023/01/29 05:14:42;;;;;;;21.12;9.65;;;;;;;-2.15;84.80;100685.56;1788805;80;21602;-73
2023/01/29 05:17:16;;;;;;;24.98;10.13;;;;;;;-2.11;84.73;100691.08;1788474;79;21155;-71
2023/01/29 05:19:45;;;;;;;21.90;9.20;;;;;;;-2.09;84.69;100688.66;1788547;80;21106;-72
2023/01/29 05:22:17;;;;;;;23.18;10.28;;;;;;;-2.09;84.45;100687.80;1788504;80;21106;-73
2023/01/29 05:24:46;;;;;;;23.20;9.63;;;;;;;-2.09;84.47;100691.34;1788567;80;21147;-70
2023/01/29 05:30:09;;;;;;;21.25;9.50;;;;;;;-2.09;84.26;100683.78;1788809;80;21111;-71
2023/01/29 05:32:38;;;;;;;26.37;10.25;;;;;;;-2.08;84.13;100690.86;1789056;80;21122;-73
2023/01/29 05:35:08;;;;;;;22.02;9.95;;;;;;;-2.08;84.13;100693.55;1789243;80;21135;-72
2023/01/29 05:37:38;;;;;;;26.23;9.98;;;;;;;-2.10;84.01;100686.95;1789099;80;21103;-71
2023/01/29 05:40:09;;;;;;;22.60;9.60;;;;;;;-2.10;83.95;100699.03;1788620;80;21159;-71
2023/01/29 05:42:38;;;;;;;28.15;10.90;;;;;;;-2.11;83.99;100689.26;1788242;80;21652;-71
2023/01/29 05:45:09;;;;;;;27.17;11.45;;;;;;;-2.10;83.92;100691.45;1788422;80;21554;-70
2023/01/29 05:47:37;;;;;;;23.25;10.63;;;;;;;-2.08;83.95;100690.86;1788223;80;21138;-72
2023/01/29 05:50:10;;;;;;;29.00;12.23;;;;;;;-2.06;83.92;100690.27;1788273;79;21103;-71
2023/01/29 05:52:39;;;;;;;29.77;12.55;;;;;;;-2.02;83.86;100691.77;1788325;80;21162;-71
2023/01/29 05:55:09;;;;;;;38.53;12.82;;;;;;;-2.01;83.72;100692.14;1788483;80;21146;-72
2023/01/29 05:57:39;;;;;;;32.63;13.88;;;;;;;-2.01;83.70;100694.83;1788295;80;21142;-70
2023/01/29 06:00:11;;;;;;;33.28;12.95;;;;;;;-2.00;83.65;100692.52;1788219;80;21143;-70
2023/01/29 06:02:41;;;;;;;34.15;14.25;;;;;;;-2.01;83.51;100692.14;1788265;80;21527;-72
2023/01/29 06:05:10;;;;;;;41.10;14.30;;;;;;;-2.03;83.50;100693.59;1788365;80;22038;-70
2023/01/29 06:07:43;;;;;;;36.15;14.30;;;;;;;-2.05;83.42;100694.67;1788529;80;21091;-72
2023/01/29 06:10:14;;;;;;;33.73;13.05;;;;;;;-2.07;83.42;100696.12;1788437;80;21155;-72
2023/01/29 06:12:44;;;;;;;40.43;15.32;;;;;;;-2.11;83.38;100700.00;1788220;80;21561;-72
2023/01/29 06:15:18;;;;;;;41.02;14.63;;;;;;;-2.12;83.46;100698.77;1788447;80;21143;-72
2023/01/29 06:17:48;;;;;;;42.70;14.40;;;;;;;-2.12;83.59;100699.62;1788375;79;21142;-70
2023/01/29 06:20:18;;;;;;;42.05;15.80;;;;;;;-2.08;83.63;100700.26;1788253;79;21162;-73
2023/01/29 06:22:50;;;;;;;38.13;15.00;;;;;;;-2.05;83.54;100700.90;1707299;83;21170;-70
2023/01/29 06:25:20;;;;;;;40.40;16.55;;;;;;;-2.03;83.49;100702.13;1634540;86;21569;-72
2023/01/29 06:27:50;;;;;;;44.23;15.90;;;;;;;-2.00;83.39;100704.59;1707169;84;21530;-71
2023/01/29 06:30:20;;;;;;;42.00;15.65;;;;;;;-1.98;83.40;100697.29;1634414;86;21203;-70
2023/01/29 06:32:49;;;;;;;41.15;15.80;;;;;;;-1.97;83.33;100697.18;1707252;84;21110;-71
2023/01/29 06:35:17;;;;;;;49.05;16.52;;;;;;;-1.98;83.25;100695.95;1634969;88;21138;-71
2023/01/29 06:37:48;;;;;;;46.18;17.87;;;;;;;-1.96;83.30;100698.89;1707138;84;21573;-70
2023/01/29 06:40:18;;;;;;;43.73;16.07;;;;;;;-1.94;83.27;100698.81;1652726;83;21122;-71
2023/01/29 06:42:47;;;;;;;43.98;16.40;;;;;;;-1.89;83.30;100701.17;1732493;82;21230;-72
2023/01/29 06:45:16;;;;;;;41.55;15.05;;;;;;;-1.84;83.31;100701.70;1721387;83;21592;-73
2023/01/29 06:47:46;;;;;;;41.05;15.43;;;;;;;-1.82;83.17;100701.95;1732416;83;21127;-70
2023/01/29 06:50:16;;;;;;;39.92;16.55;;;;;;;-1.82;83.13;100695.73;1721236;83;21126;-74
2023/01/29 06:52:46;;;;;;;38.28;16.48;;;;;;;-1.81;83.12;100703.67;1732446;83;21124;-73
2023/01/29 06:55:15;;;;;;;37.95;15.18;;;;;;;-1.81;83.09;100706.36;1721435;83;21639;-72
2023/01/29 06:57:44;;;;;;;37.63;15.10;;;;;;;-1.79;83.18;100698.19;1732394;82;21139;-70
2023/01/29 07:00:15;;;;;;;40.43;15.90;;;;;;;-1.74;83.18;100698.23;1721279;83;21627;-72
2023/01/29 07:02:47;;;;;;;36.45;16.57;;;;;;;-1.71;83.09;100703.86;1732387;83;21124;-71
2023/01/29 07:05:15;;;;;;;46.33;19.27;;;;;;;-1.70;83.08;100701.55;1695824;83;21153;-73
2023/01/29 07:07:45;;;;;;;42.08;17.50;;;;;;;-1.69;83.12;100702.78;1732338;82;21186;-75
2023/01/29 07:10:15;;;;;;;45.15;18.45;;;;;;;-1.66;83.10;100701.21;1721168;83;21569;-72
2023/01/29 07:12:44;;;;;;;39.33;16.77;;;;;;;-1.63;83.11;100699.64;1732326;83;21558;-72
2023/01/29 07:15:13;;;;;;;38.25;15.78;;;;;;;-1.59;83.13;100694.91;1721282;83;21153;-69
2023/01/29 07:17:43;;;;;;;34.98;14.80;;;;;;;-1.57;83.05;100696.12;1732641;83;21664;-72
2023/01/29 07:20:12;;;;;;;35.50;14.58;;;;;;;-1.61;82.89;100694.16;1721217;83;21228;-71
2023/01/29 07:22:41;;;;;;;39.05;14.95;;;;;;;-1.60;83.04;100702.59;1732384;83;21163;-72
2023/01/29 07:25:10;;;;;;;37.98;15.83;;;;;;;-1.59;83.11;100700.27;1721323;83;21161;-72
2023/01/29 07:27:40;;;;;;;41.28;16.30;;;;;;;-1.53;83.20;100702.99;1732540;82;21128;-71
2023/01/29 07:30:10;;;;;;;37.93;14.83;;;;;;;-1.52;83.21;100708.25;1718266;83;21122;-72
2023/01/29 07:32:39;;;;;;;40.65;16.17;;;;;;;-1.55;83.35;100704.45;1782865;80;21142;-73
2023/01/29 07:35:09;;;;;;;38.80;15.30;;;;;;;-1.54;83.54;100706.66;1782984;80;21534;-72
2023/01/29 07:37:38;;;;;;;33.98;15.23;;;;;;;-1.53;83.67;100705.68;1782792;80;21154;-70
2023/01/29 07:40:10;;;;;;;39.25;14.25;;;;;;;-1.51;83.78;100706.42;1782477;80;21076;-72
2023/01/29 07:42:42;;;;;;;40.35;13.88;;;;;;;-1.48;83.91;100706.20;1782805;80;21139;-71
2023/01/29 07:45:11;;;;;;;36.40;13.53;;;;;;;-1.43;83.93;100697.31;1782512;80;21151;-72
2023/01/29 07:47:40;;;;;;;37.08;14.70;;;;;;;-1.41;83.88;100700.74;1783014;80;21115;-73
2023/01/29 07:50:11;;;;;;;39.30;15.23;;;;;;;-1.41;83.96;100696.22;1782861;80;21569;-73
2023/01/29 07:52:40;;;;;;;41.45;16.35;;;;;;;-1.38;83.92;100699.17;1782818;80;21083;-72
2023/01/29 07:55:09;;;;;;;43.33;16.65;;;;;;;-1.35;84.01;100704.31;1782669;80;21511;-72
2023/01/29 07:57:38;;;;;;;37.63;15.60;;;;;;;-1.31;84.05;100705.80;1782658;80;21570;-70
2023/01/29 08:00:10;;;;;;;38.65;14.13;;;;;;;-1.29;84.03;100702.06;1782271;80;21076;-71
2023/01/29 08:02:42;;;;;;;34.20;14.43;;;;;;;-1.27;84.07;100693.88;1782907;80;21150;-72
2023/01/29 08:05:12;;;;;;;38.95;15.53;;;;;;;-1.30;83.97;100705.72;1782690;80;21261;-71
2023/01/29 08:07:41;;;;;;;35.52;14.58;;;;;;;-1.35;84.00;100711.89;1782688;80;21523;-70
2023/01/29 08:10:10;;;;;;;38.17;14.65;;;;;;;-1.35;84.25;100710.55;1782840;80;21096;-71
2023/01/29 08:12:39;;;;;;;44.25;16.20;;;;;;;-1.30;84.43;100712.44;1782682;80;21566;-73
2023/01/29 08:15:10;;;;;;;47.27;17.35;;;;;;;-1.24;84.61;100715.16;1782838;80;21553;-70
2023/01/29 08:17:38;;;;;;;55.58;19.48;;;;;;;-1.20;84.66;100707.23;1782867;80;21127;-70
2023/01/29 08:20:11;;;;;;;53.48;19.17;;;;;;;-1.19;84.60;100708.95;1780064;80;21139;-71
2023/01/29 08:22:40;;;;;;;52.65;19.42;;;;;;;-1.18;84.64;100707.13;1783000;80;21155;-71
2023/01/29 08:25:09;;;;;;;42.67;17.67;;;;;;;-1.15;84.79;100710.44;1784228;80;21146;-71
2023/01/29 08:27:38;;;;;;;39.53;16.12;;;;;;;-1.08;84.92;100707.66;1784693;80;21558;-72
2023/01/29 08:30:09;;;;;;;35.88;15.05;;;;;;;-1.03;84.95;100712.69;1785536;80;21578;-72
2023/01/29 08:32:37;;;;;;;37.78;14.75;;;;;;;-0.99;85.01;100718.20;1788236;80;21142;-71
2023/01/29 08:35:07;;;;;;;38.70;15.00;;;;;;;-0.96;85.01;100713.45;1788171;80;21554;-71
2023/01/29 08:37:36;;;;;;;38.75;15.78;;;;;;;-0.95;85.07;100714.30;1788199;80;21111;-71
2023/01/29 08:40:08;;;;;;;39.45;15.43;;;;;;;-0.92;84.95;100713.22;1788435;80;21526;-73
2023/01/29 08:42:37;;;;;;;36.35;15.32;;;;;;;-0.91;85.06;100714.93;1788153;80;21107;-72
2023/01/29 08:45:08;;;;;;;40.88;16.20;;;;;;;-0.89;85.15;100711.15;1788401;80;21146;-71
2023/01/29 08:47:36;;;;;;;40.17;15.65;;;;;;;-0.85;85.26;100702.36;1788298;80;21569;-71
2023/01/29 08:50:08;;;;;;;33.73;15.03;;;;;;;-0.80;85.21;100701.52;1788073;80;21204;-70
2023/01/29 08:52:39;;;;;;;35.08;15.10;;;;;;;-0.79;85.11;100704.09;1788336;80;21159;-69
2023/01/29 08:55:09;;;;;;;31.70;14.25;;;;;;;-0.80;85.08;100705.06;1736351;82;21546;-70
2023/01/29 08:57:38;;;;;;;34.18;14.70;;;;;;;-0.80;85.03;100694.80;1661237;86;21174;-68
2023/01/29 09:00:10;;;;;;;42.35;15.78;;;;;;;-0.78;85.02;100697.73;1736431;82;21154;-68
2023/01/29 09:02:39;;;;;;;43.73;19.12;;;;;;;-0.73;85.14;100694.69;1661270;86;21147;-70
2023/01/29 09:05:09;;;;;;;45.50;18.87;;;;;;;-0.69;85.13;100697.02;1736538;82;21127;-72
2023/01/29 09:07:37;;;;;;;46.13;19.82;;;;;;;-0.66;85.09;100694.58;1661234;86;21143;-69
2023/01/29 09:10:07;;;;;;;39.58;16.42;;;;;;;-0.64;85.16;100695.36;1736305;82;21570;-71
2023/01/29 09:12:36;;;;;;;38.75;16.32;;;;;;;-0.63;85.17;100693.03;1661348;86;21216;-69
2023/01/29 09:15:06;;;;;;;36.90;14.18;;;;;;;-0.63;85.18;100683.62;1736366;82;21155;-75
2023/01/29 09:17:35;;;;;;;30.25;13.88;;;;;;;-0.58;85.36;100691.33;1661421;85;21126;-71
2023/01/29 09:20:06;;;;;;;31.23;13.28;;;;;;;-0.59;85.34;100687.78;1768779;80;21150;-74
2023/01/29 09:22:35;;;;;;;35.20;14.78;;;;;;;-0.62;85.39;100681.30;1788733;79;21112;-75
2023/01/29 09:25:05;;;;;;;31.77;13.45;;;;;;;-0.58;85.48;100679.22;1788657;80;21576;-67
2023/01/29 09:27:34;;;;;;;34.00;14.35;;;;;;;-0.57;85.47;100678.24;1788316;80;21574;-72
2023/01/29 09:30:05;;;;;;;33.13;13.80;;;;;;;-0.56;85.48;100682.65;1775413;80;21186;-72
2023/01/29 09:32:35;;;;;;;34.98;14.75;;;;;;;-0.54;86.08;100671.28;1745680;79;21198;-74
2023/01/29 09:35:07;;;;;;;32.83;14.18;;;;;;;-0.48;86.10;100666.76;1770960;80;21263;-73
2023/01/29 09:37:37;;;;;;;32.08;14.60;;;;;;;-0.45;85.99;100673.24;1706475;84;21135;-71
2023/01/29 09:40:10;;;;;;;37.20;14.10;;;;;;;-0.43;85.96;100663.22;1772691;81;21143;-71
2023/01/29 09:42:44;;;;;;;29.77;14.10;;;;;;;-0.40;85.93;100665.66;1733533;82;21123;-71
2023/01/29 09:45:26;;;;;;;35.90;13.43;;;;;;;-0.38;85.93;100665.05;1743715;82;21522;-72
2023/01/29 09:48:00;;;;;;;34.83;14.00;;;;;;;-0.34;85.85;100662.00;1743845;81;21576;-69
2023/01/29 09:50:39;;;;;;;34.65;13.93;;;;;;;-0.32;85.83;100653.80;1763146;79;21107;-71
2023/01/29 09:53:22;;;;;;;31.05;13.43;;;;;;;-0.27;85.91;100656.12;1761246;81;21108;-72
2023/01/29 09:55:59;;;;;;;33.53;13.50;;;;;;;-0.22;86.00;100657.96;1774199;81;21547;-69
2023/01/29 09:58:34;;;;;;;28.98;12.60;;;;;;;-0.16;85.88;100658.33;1774224;80;21100;-69
2023/01/29 10:01:24;;;;;;;31.55;13.00;;;;;;;-0.13;85.92;100650.00;1774435;80;21134;-70
2023/01/29 13:10:07;;;;;;;23.47;9.87;;;;;;;0.21;82.13;100522.86;1848225;77;24620;-69
2023/01/29 13:12:39;;;;;;;26.85;10.53;;;;;;;0.17;82.15;100532.19;1791273;79;21534;-70
2023/01/29 13:15:16;;;;;;;22.37;10.58;;;;;;;0.18;81.70;100523.12;1736351;82;21412;-70
2023/01/29 13:17:49;;;;;;;24.63;10.88;;;;;;;0.22;81.75;100529.96;1753839;82;21087;-69
2023/01/29 13:20:31;;;;;;;30.92;11.15;;;;;;;0.25;81.72;100525.66;1763460;81;21176;-69
2023/01/29 13:23:22;;;;;;;27.48;10.65;;;;;;;0.30;82.05;100520.74;1725946;83;21155;-70
2023/01/29 13:25:52;;;;;;;25.17;10.58;;;;;;;0.37;82.10;100530.52;1756610;81;21124;-70
2023/01/29 13:28:24;;;;;;;21.05;8.95;;;;;;;0.40;81.78;100530.75;1757519;81;22224;-70
2023/01/29 13:31:25;;;;;;;21.20;9.23;;;;;;;0.43;81.73;100528.65;1756852;81;21168;-69
2023/01/29 13:34:21;;;;;;;24.25;10.43;;;;;;;0.45;81.51;100525.83;1756549;81;21859;-69
2023/01/29 13:36:54;;;;;;;22.40;10.40;;;;;;;0.43;81.19;100530.48;1753678;82;21604;-68
2023/01/29 13:39:27;;;;;;;23.80;10.40;;;;;;;0.43;81.11;100526.44;1722216;83;21177;-68
2023/01/29 13:41:57;;;;;;;19.67;9.90;;;;;;;0.44;80.91;100525.46;1753963;81;21162;-68
2023/01/29 13:44:33;;;;;;;24.27;10.88;;;;;;;0.43;80.66;100523.26;1753864;81;21126;-70
2023/01/29 13:47:06;;;;;;;20.45;9.85;;;;;;;0.44;80.53;100525.46;1723819;83;21126;-69
2023/01/29 13:49:45;;;;;;;20.32;9.53;;;;;;;0.45;80.50;100525.83;1723858;83;21125;-67
2023/01/29 13:52:43;;;;;;;22.52;9.83;;;;;;;0.47;80.34;100530.09;1694668;83;21114;-68
2023/01/29 13:55:22;;;;;;;19.30;8.58;;;;;;;0.50;80.14;100528.98;1753726;82;21180;-68
2023/01/29 13:57:53;;;;;;;18.90;9.50;;;;;;;0.49;79.85;100529.48;1753776;82;21176;-69
2023/01/29 14:00:39;;;;;;;23.45;10.20;;;;;;;0.51;79.68;100529.34;1753963;82;21153;-68
2023/01/29 14:03:13;;;;;;;24.02;11.12;;;;;;;0.51;79.41;100526.65;1753779;82;21525;-69
2023/01/29 14:05:44;;;;;;;24.00;10.82;;;;;;;0.51;79.40;100523.46;1754071;82;21133;-70
2023/01/29 14:08:18;;;;;;;23.57;11.05;;;;;;;0.52;79.36;100523.83;1753441;82;21248;-67
2023/01/29 14:10:46;;;;;;;27.37;11.30;;;;;;;0.53;79.24;100518.80;1743639;82;21589;-70
2023/01/29 14:13:23;;;;;;;27.55;12.00;;;;;;;0.53;79.22;100517.94;1724999;82;21197;-69
2023/01/29 14:16:03;;;;;;;29.67;11.93;;;;;;;0.52;79.23;100522.48;1751643;82;21603;-69
2023/01/29 14:18:36;;;;;;;31.80;13.68;;;;;;;0.55;79.33;100509.23;1751477;82;21176;-68
2023/01/29 14:21:24;;;;;;;29.27;12.35;;;;;;;0.57;79.31;100507.25;1750915;82;21603;-68
2023/01/29 14:24:10;;;;;;;33.15;12.95;;;;;;;0.56;79.10;100505.55;1720631;83;21158;-69
2023/01/29 14:26:44;;;;;;;26.10;10.75;;;;;;;0.57;79.10;100504.56;1721116;83;21194;-69
2023/01/29 14:29:21;;;;;;;22.02;9.40;;;;;;;0.56;78.90;100498.81;1733809;83;21182;-70
2023/01/29 14:32:08;;;;;;;22.05;8.78;;;;;;;0.53;78.62;100499.92;1721098;83;21142;-69
2023/01/29 14:35:16;;;;;;;20.27;9.53;;;;;;;0.50;78.37;100508.77;1721351;83;21150;-70
2023/01/29 14:37:50;;;;;;;24.67;10.48;;;;;;;0.46;78.08;100508.17;1720968;83;21601;-70
2023/01/29 14:40:23;;;;;;;30.95;13.40;;;;;;;0.46;78.00;100503.27;1720647;83;21126;-70
2023/01/29 14:43:07;;;;;;;23.60;10.75;;;;;;;0.46;77.94;100510.87;1733595;83;21155;-70
2023/01/29 14:45:44;;;;;;;19.75;8.93;;;;;;;0.47;77.77;100516.62;1724036;82;21609;-70
2023/01/29 14:48:32;;;;;;;22.13;9.93;;;;;;;0.45;77.51;100513.20;1745568;81;21573;-71
2023/01/29 14:51:13;;;;;;;30.85;12.23;;;;;;;0.44;77.47;100517.38;1728101;82;21186;-69
2023/01/29 14:54:12;;;;;;;19.98;9.93;;;;;;;0.43;77.41;100521.91;1722848;82;21131;-69
2023/01/29 14:56:49;;;;;;;30.43;11.20;;;;;;;0.42;77.27;100520.20;1733774;82;21139;-69
2023/01/29 14:59:37;;;;;;;21.75;10.03;;;;;;;0.39;77.23;100527.20;1779269;80;21561;-69
2023/01/29 15:02:19;;;;;;;20.68;9.38;;;;;;;0.40;77.34;100524.86;1715724;84;21127;-69
2023/01/29 15:04:54;;;;;;;19.87;10.18;;;;;;;0.38;77.06;100525.48;1728940;83;21324;-70
2023/01/29 15:07:46;;;;;;;22.75;10.35;;;;;;;0.33;76.95;100536.30;1715473;84;21115;-72
2023/01/29 15:10:23;;;;;;;31.77;12.50;;;;;;;0.31;77.19;100529.69;1699988;83;21565;-70
2023/01/29 15:13:05;;;;;;;23.20;10.15;;;;;;;0.31;77.27;100535.93;1744950;82;21147;-71
2023/01/29 15:15:58;;;;;;;28.15;12.10;;;;;;;0.30;77.38;100528.83;1748062;82;21096;-71
2023/01/29 15:18:40;;;;;;;23.65;10.82;;;;;;;0.31;77.43;100529.69;1748155;81;21190;-71
2023/01/29 15:21:13;;;;;;;19.35;8.95;;;;;;;0.31;77.39;100530.54;1708829;82;21163;-71
2023/01/29 15:23:43;;;;;;;22.27;9.33;;;;;;;0.29;77.30;100529.81;1748119;82;21134;-71
2023/01/29 15:26:18;;;;;;;24.85;10.55;;;;;;;0.28;77.37;100531.29;1748297;82;21541;-70
2023/01/29 15:28:57;;;;;;;23.07;9.75;;;;;;;0.31;77.44;100528.34;1747910;82;21548;-70
2023/01/29 15:31:29;;;;;;;20.05;9.35;;;;;;;0.31;77.31;100530.54;1747752;82;21104;-70
2023/01/29 15:34:01;;;;;;;22.02;10.30;;;;;;;0.31;77.34;100532.37;1747769;82;21155;-70
2023/01/29 15:36:31;;;;;;;22.45;9.88;;;;;;;0.29;77.21;100532.51;1748263;81;21282;-70
2023/01/29 15:39:21;;;;;;;21.52;9.55;;;;;;;0.27;77.33;100525.05;1748050;81;21139;-71
2023/01/29 15:41:51;;;;;;;20.05;9.28;;;;;;;0.30;77.32;100530.17;1742483;82;21565;-71
2023/01/29 15:44:21;;;;;;;20.92;9.45;;;;;;;0.29;76.96;100531.16;1727653;82;21124;-72
2023/01/29 15:46:58;;;;;;;22.17;9.90;;;;;;;0.29;76.83;100533.85;1748344;81;21163;-71
2023/01/29 15:49:34;;;;;;;31.52;11.18;;;;;;;0.27;76.80;100537.66;1748059;81;21139;-71
2023/01/29 15:52:10;;;;;;;27.60;11.20;;;;;;;0.27;76.75;100537.17;1747953;82;21619;-69
2023/01/29 15:54:39;;;;;;;22.85;10.08;;;;;;;0.29;76.75;100536.55;1748253;82;21127;-72
2023/01/29 15:57:22;;;;;;;26.85;10.50;;;;;;;0.29;76.59;100535.20;1748108;82;21144;-71
2023/01/29 15:59:52;;;;;;;25.23;9.95;;;;;;;0.27;76.55;100533.13;1747981;81;21639;-71
2023/01/29 16:02:40;;;;;;;26.80;11.90;;;;;;;0.24;76.50;100531.18;1748176;82;21154;-69
2023/01/29 16:05:21;;;;;;;24.63;10.80;;;;;;;0.22;76.59;100531.31;1748114;82;21143;-70
2023/01/29 16:07:51;;;;;;;25.25;10.50;;;;;;;0.22;76.66;100535.84;1747741;82;21625;-71
2023/01/29 16:10:28;;;;;;;36.23;12.40;;;;;;;0.20;76.61;100530.58;1768925;81;21159;-72
2023/01/29 16:12:57;;;;;;;25.27;10.78;;;;;;;0.21;76.69;100534.13;1776506;81;21138;-70
2023/01/29 16:15:36;;;;;;;29.20;10.87;;;;;;;0.18;76.58;100531.20;1710078;84;21131;-70
2023/01/29 16:18:35;;;;;;;25.70;10.60;;;;;;;0.16;76.62;100530.48;1709954;83;21123;-70
2023/01/29 16:21:13;;;;;;;23.05;10.40;;;;;;;0.16;76.57;100538.56;1710084;84;21111;-71
2023/01/29 16:23:47;;;;;;;29.05;11.25;;;;;;;0.16;76.22;100541.25;1648157;87;21199;-72
2023/01/29 16:26:20;;;;;;;27.25;10.82;;;;;;;0.17;75.89;100538.92;1709621;84;21566;-71
2023/01/29 16:28:48;;;;;;;24.05;11.12;;;;;;;0.19;75.83;100534.27;1709772;84;21221;-71
2023/01/29 16:31:26;;;;;;;27.77;11.73;;;;;;;0.21;75.51;100536.83;1648591;87;21190;-70
2023/01/29 16:33:56;;;;;;;28.85;10.70;;;;;;;0.17;75.22;100535.37;1709774;84;21166;-71
2023/01/29 16:36:26;;;;;;;24.30;11.33;;;;;;;0.16;75.37;100535.86;1682548;84;21139;-71
2023/01/29 16:39:03;;;;;;;19.40;9.25;;;;;;;0.19;75.52;100546.39;1775781;81;21597;-71
2023/01/29 16:41:37;;;;;;;20.23;8.80;;;;;;;0.19;75.46;100543.69;1776065;81;21119;-71
2023/01/29 16:44:31;;;;;;;16.75;7.55;;;;;;;0.21;75.55;100540.87;1776010;81;21166;-70
2023/01/29 16:47:12;;;;;;;20.88;9.88;;;;;;;0.23;75.47;100540.25;1776087;81;21531;-70
2023/01/29 16:49:52;;;;;;;24.63;10.28;;;;;;;0.22;75.46;100541.23;1709869;84;21638;-71
2023/01/29 16:52:32;;;;;;;23.77;10.30;;;;;;;0.21;75.48;100543.56;1776120;81;21139;-70
2023/01/29 16:55:21;;;;;;;20.20;8.23;;;;;;;0.18;75.45;100543.33;1709852;84;21202;-70
2023/01/29 16:57:54;;;;;;;23.30;9.40;;;;;;;0.16;75.37;100535.86;1775781;81;21123;-72
2023/01/29 17:00:27;;;;;;;22.62;8.70;;;;;;;0.15;74.96;100546.28;1776082;81;21112;-70
2023/01/29 17:03:04;;;;;;;16.10;7.22;;;;;;;0.10;74.48;100541.77;1710000;84;21203;-70
2023/01/29 17:05:36;;;;;;;15.53;7.00;;;;;;;0.09;74.30;100548.63;1709959;83;21182;-71
2023/01/29 17:08:05;;;;;;;14.28;6.40;;;;;;;0.08;74.19;100540.18;1709979;83;21179;-71
2023/01/29 17:10:36;;;;;;;22.20;7.67;;;;;;;0.06;73.58;100545.69;1682411;84;21558;-70
2023/01/29 17:13:08;;;;;;;18.15;7.83;;;;;;;0.05;73.32;100541.29;1776144;81;21581;-70
2023/01/29 17:15:44;;;;;;;19.80;8.20;;;;;;;0.01;72.66;100549.27;1709886;84;21099;-70
2023/01/29 17:18:21;;;;;;;18.87;7.65;;;;;;;-0.03;72.67;100549.12;1682671;84;21167;-70
2023/01/29 17:20:54;;;;;;;21.73;8.28;;;;;;;-0.02;72.44;100540.05;1709915;84;21625;-71
2023/01/29 17:23:23;;;;;;;17.92;6.45;;;;;;;-0.02;72.48;100534.67;1775774;81;21095;-71
2023/01/29 17:25:51;;;;;;;17.32;6.80;;;;;;;0.02;72.50;100539.34;1709995;84;21147;-72
2023/01/29 17:28:20;;;;;;;18.82;6.45;;;;;;;0.04;72.54;100540.92;1746181;81;21103;-71
2023/01/29 17:30:51;;;;;;;16.85;6.72;;;;;;;0.05;72.43;100538.59;1622094;88;21696;-71
2023/01/29 17:33:24;;;;;;;16.87;7.37;;;;;;;0.06;72.32;100533.57;1680944;85;21619;-70
2023/01/29 17:35:53;;;;;;;14.30;5.97;;;;;;;0.07;72.19;100535.78;1681355;85;21178;-69
2023/01/29 17:38:22;;;;;;;11.50;5.17;;;;;;;0.10;71.94;100535.03;1681490;85;21167;-70
2023/01/29 17:40:59;;;;;;;15.50;5.75;;;;;;;0.12;71.56;100531.72;1681269;85;21240;-70
2023/01/29 17:43:29;;;;;;;16.73;5.10;;;;;;;0.13;71.19;100533.42;1681656;85;21163;-71
2023/01/29 17:45:57;;;;;;;22.73;6.33;;;;;;;0.13;70.75;100537.95;1681282;85;21158;-71
2023/01/29 17:48:29;;;;;;;9.95;4.78;;;;;;;0.11;70.33;100524.62;1681560;85;21217;-71
2023/01/29 17:51:03;;;;;;;20.62;7.35;;;;;;;0.08;69.69;100512.75;1681590;85;21630;-71
2023/01/29 17:53:32;;;;;;;15.88;6.83;;;;;;;0.00;69.05;100515.23;1681452;85;21182;-71
2023/01/29 17:56:05;;;;;;;22.93;6.97;;;;;;;-0.03;69.36;100512.76;1748886;81;21151;-70
2023/01/29 17:58:35;;;;;;;22.02;6.87;;;;;;;-0.04;69.43;100515.09;1776147;81;21573;-71
2023/01/29 18:01:04;;;;;;;17.52;7.85;;;;;;;-0.05;69.60;100514.23;1776458;81;21210;-69
2023/01/29 18:03:35;;;;;;;18.23;7.55;;;;;;;-0.04;69.59;100511.05;1648531;86;21211;-67
2023/01/29 18:06:06;;;;;;;27.55;7.67;;;;;;;-0.06;69.68;100504.44;1710036;84;21119;-70
2023/01/29 18:08:37;;;;;;;27.90;8.63;;;;;;;-0.01;69.70;100504.91;1709912;84;21654;-71
2023/01/29 18:11:06;;;;;;;17.57;7.10;;;;;;;0.01;69.71;100499.92;1709751;84;22134;-69
2023/01/29 18:13:35;;;;;;;20.82;7.95;;;;;;;-0.02;69.47;100501.00;1710030;84;21135;-71
2023/01/29 18:16:05;;;;;;;24.70;7.78;;;;;;;-0.05;69.38;100503.45;1681998;84;21574;-70
2023/01/29 18:18:34;;;;;;;33.50;8.10;;;;;;;-0.05;69.48;100491.83;1710076;84;21151;-71
2023/01/29 18:21:03;;;;;;;59.73;10.72;;;;;;;-0.05;69.47;100488.64;1700176;81;21155;-70